sensor_id;sensor_type;location;lat;lon;timestamp;P1;durP1;ratioP1;P2;durP2;ratioP2
10977;SDS011;5542;48.272;10.794;2022-09-09T00:02:12;0.80;;;0.80;;
10977;SDS011;5542;48.272;10.794;2022-09-09T00:04:46;0.80;;;0.80;;
10977;SDS011;5542;48.272;10.794;2022-09-09T00:07:28;1.08;;;0.80;;
10977;SDS011;5542;48.272;10.794;2022-09-09T00:10:09;0.70;;;0.70;;
10977;SDS011;5542;48.272;10.794;2022-09-09T00:12:44;0.80;;;0.80;;
10977;SDS011;5542;48.272;10.794;2022-09-09T00:15:20;0.80;;;0.80;;
10977;SDS011;5542;48.272;10.794;2022-09-09T00:17:51;0.70;;;0.68;;
10977;SDS011;5542;48.272;10.794;2022-09-09T00:20:25;0.80;;;0.80;;
10977;SDS011;5542;48.272;10.794;2022-09-09T00:22:57;0.70;;;0.70;;
10977;SDS011;5542;48.272;10.794;2022-09-09T00:25:32;0.80;;;0.80;;
10977;SDS011;5542;48.272;10.794;2022-09-09T00:28:04;0.70;;;0.70;;
10977;SDS011;5542;48.272;10.794;2022-09-09T00:30:39;0.80;;;0.80;;
10977;SDS011;5542;48.272;10.794;2022-09-09T00:33:09;0.73;;;0.73;;
10977;SDS011;5542;48.272;10.794;2022-09-09T00:35:42;0.70;;;0.70;;
10977;SDS011;5542;48.272;10.794;2022-09-09T00:38:13;0.90;;;0.90;;
10977;SDS011;5542;48.272;10.794;2022-09-09T00:40:45;0.77;;;0.77;;
10977;SDS011;5542;48.272;10.794;2022-09-09T00:43:26;0.70;;;0.70;;
10977;SDS011;5542;48.272;10.794;2022-09-09T00:46:03;0.75;;;0.75;;
10977;SDS011;5542;48.272;10.794;2022-09-09T00:48:41;0.70;;;0.70;;
10977;SDS011;5542;48.272;10.794;2022-09-09T00:51:21;0.73;;;0.73;;
10977;SDS011;5542;48.272;10.794;2022-09-09T00:54:13;0.70;;;0.70;;
10977;SDS011;5542;48.272;10.794;2022-09-09T00:56:53;0.60;;;0.60;;
10977;SDS011;5542;48.272;10.794;2022-09-09T00:59:32;1.08;;;0.90;;
10977;SDS011;5542;48.272;10.794;2022-09-09T01:02:09;0.77;;;0.77;;
10977;SDS011;5542;48.272;10.794;2022-09-09T01:04:42;0.70;;;0.70;;
10977;SDS011;5542;48.272;10.794;2022-09-09T01:07:12;0.70;;;0.70;;
10977;SDS011;5542;48.272;10.794;2022-09-09T01:09:45;0.70;;;0.70;;
10977;SDS011;5542;48.272;10.794;2022-09-09T01:12:24;0.77;;;0.77;;
10977;SDS011;5542;48.272;10.794;2022-09-09T01:14:56;0.70;;;0.70;;
10977;SDS011;5542;48.272;10.794;2022-09-09T01:17:30;0.70;;;0.70;;
10977;SDS011;5542;48.272;10.794;2022-09-09T01:20:04;0.50;;;0.50;;
10977;SDS011;5542;48.272;10.794;2022-09-09T01:22:40;0.60;;;0.60;;
10977;SDS011;5542;48.272;10.794;2022-09-09T01:25:21;0.63;;;0.63;;
10977;SDS011;5542;48.272;10.794;2022-09-09T01:27:54;0.60;;;0.60;;
10977;SDS011;5542;48.272;10.794;2022-09-09T01:30:24;0.80;;;0.80;;
10977;SDS011;5542;48.272;10.794;2022-09-09T01:32:54;0.65;;;0.65;;
10977;SDS011;5542;48.272;10.794;2022-09-09T01:38:13;0.70;;;0.70;;
10977;SDS011;5542;48.272;10.794;2022-09-09T01:40:40;0.70;;;0.70;;
10977;SDS011;5542;48.272;10.794;2022-09-09T01:43:08;0.43;;;0.43;;
10977;SDS011;5542;48.272;10.794;2022-09-09T01:45:35;0.53;;;0.53;;
10977;SDS011;5542;48.272;10.794;2022-09-09T01:48:03;0.52;;;0.52;;
10977;SDS011;5542;48.272;10.794;2022-09-09T01:50:30;1.02;;;0.70;;
10977;SDS011;5542;48.272;10.794;2022-09-09T01:52:57;0.77;;;0.77;;
10977;SDS011;5542;48.272;10.794;2022-09-09T01:55:28;0.85;;;0.85;;
10977;SDS011;5542;48.272;10.794;2022-09-09T01:57:58;0.80;;;0.80;;
10977;SDS011;5542;48.272;10.794;2022-09-09T02:00:41;0.50;;;0.50;;
10977;SDS011;5542;48.272;10.794;2022-09-09T02:03:15;0.50;;;0.50;;
10977;SDS011;5542;48.272;10.794;2022-09-09T02:05:49;0.65;;;0.65;;
10977;SDS011;5542;48.272;10.794;2022-09-09T02:08:28;0.75;;;0.75;;
10977;SDS011;5542;48.272;10.794;2022-09-09T02:11:05;1.00;;;1.00;;
10977;SDS011;5542;48.272;10.794;2022-09-09T02:13:36;0.95;;;0.95;;
10977;SDS011;5542;48.272;10.794;2022-09-09T02:16:06;0.90;;;0.90;;
10977;SDS011;5542;48.272;10.794;2022-09-09T02:18:35;0.68;;;0.68;;
10977;SDS011;5542;48.272;10.794;2022-09-09T02:21:11;0.77;;;0.77;;
10977;SDS011;5542;48.272;10.794;2022-09-09T02:23:39;1.00;;;1.00;;
10977;SDS011;5542;48.272;10.794;2022-09-09T02:26:08;0.80;;;0.80;;
10977;SDS011;5542;48.272;10.794;2022-09-09T02:28:39;0.93;;;0.93;;
10977;SDS011;5542;48.272;10.794;2022-09-09T02:31:07;0.60;;;0.60;;
10977;SDS011;5542;48.272;10.794;2022-09-09T02:33:35;0.70;;;0.70;;
10977;SDS011;5542;48.272;10.794;2022-09-09T02:36:06;0.90;;;0.90;;
10977;SDS011;5542;48.272;10.794;2022-09-09T02:38:35;0.70;;;0.70;;
10977;SDS011;5542;48.272;10.794;2022-09-09T02:41:06;0.60;;;0.60;;
10977;SDS011;5542;48.272;10.794;2022-09-09T02:43:33;1.50;;;1.40;;
10977;SDS011;5542;48.272;10.794;2022-09-09T02:46:04;0.90;;;0.90;;
10977;SDS011;5542;48.272;10.794;2022-09-09T02:48:43;0.90;;;0.90;;
10977;SDS011;5542;48.272;10.794;2022-09-09T02:51:18;0.75;;;0.75;;
10977;SDS011;5542;48.272;10.794;2022-09-09T02:53:57;0.80;;;0.80;;
10977;SDS011;5542;48.272;10.794;2022-09-09T02:56:29;1.20;;;1.10;;
10977;SDS011;5542;48.272;10.794;2022-09-09T02:59:02;1.13;;;0.90;;
10977;SDS011;5542;48.272;10.794;2022-09-09T03:01:31;1.13;;;0.90;;
10977;SDS011;5542;48.272;10.794;2022-09-09T03:03:57;0.90;;;0.90;;
10977;SDS011;5542;48.272;10.794;2022-09-09T03:06:24;0.70;;;0.70;;
10977;SDS011;5542;48.272;10.794;2022-09-09T03:08:52;0.80;;;0.80;;
10977;SDS011;5542;48.272;10.794;2022-09-09T03:11:18;0.63;;;0.63;;
10977;SDS011;5542;48.272;10.794;2022-09-09T03:13:45;0.88;;;0.88;;
10977;SDS011;5542;48.272;10.794;2022-09-09T03:16:12;1.45;;;1.35;;
10977;SDS011;5542;48.272;10.794;2022-09-09T03:18:41;0.90;;;0.90;;
10977;SDS011;5542;48.272;10.794;2022-09-09T03:21:10;1.05;;;1.05;;
10977;SDS011;5542;48.272;10.794;2022-09-09T03:23:36;0.93;;;0.93;;
10977;SDS011;5542;48.272;10.794;2022-09-09T03:26:03;1.10;;;1.02;;
10977;SDS011;5542;48.272;10.794;2022-09-09T03:28:30;0.98;;;0.98;;
10977;SDS011;5542;48.272;10.794;2022-09-09T03:30:58;0.80;;;0.80;;
10977;SDS011;5542;48.272;10.794;2022-09-09T03:33:25;0.90;;;0.90;;
10977;SDS011;5542;48.272;10.794;2022-09-09T03:35:54;1.10;;;1.00;;
10977;SDS011;5542;48.272;10.794;2022-09-09T03:38:22;0.93;;;0.93;;
10977;SDS011;5542;48.272;10.794;2022-09-09T03:40:50;1.02;;;1.02;;
10977;SDS011;5542;48.272;10.794;2022-09-09T03:43:20;0.90;;;0.90;;
10977;SDS011;5542;48.272;10.794;2022-09-09T03:45:47;0.70;;;0.70;;
10977;SDS011;5542;48.272;10.794;2022-09-09T03:48:14;0.90;;;0.90;;
10977;SDS011;5542;48.272;10.794;2022-09-09T03:50:43;1.10;;;1.10;;
10977;SDS011;5542;48.272;10.794;2022-09-09T03:53:12;0.90;;;0.90;;
10977;SDS011;5542;48.272;10.794;2022-09-09T03:55:40;1.10;;;0.85;;
10977;SDS011;5542;48.272;10.794;2022-09-09T03:58:10;0.90;;;0.90;;
10977;SDS011;5542;48.272;10.794;2022-09-09T04:00:37;0.90;;;0.90;;
10977;SDS011;5542;48.272;10.794;2022-09-09T04:03:07;1.17;;;1.17;;
10977;SDS011;5542;48.272;10.794;2022-09-09T04:05:34;1.20;;;1.15;;
10977;SDS011;5542;48.272;10.794;2022-09-09T04:08:04;0.82;;;0.82;;
10977;SDS011;5542;48.272;10.794;2022-09-09T04:10:32;1.08;;;0.98;;
10977;SDS011;5542;48.272;10.794;2022-09-09T04:13:01;0.90;;;0.90;;
10977;SDS011;5542;48.272;10.794;2022-09-09T04:15:27;1.00;;;1.00;;
10977;SDS011;5542;48.272;10.794;2022-09-09T04:17:54;1.00;;;1.00;;
10977;SDS011;5542;48.272;10.794;2022-09-09T04:20:21;1.10;;;1.10;;
10977;SDS011;5542;48.272;10.794;2022-09-09T04:22:48;1.02;;;1.02;;
10977;SDS011;5542;48.272;10.794;2022-09-09T04:25:14;1.10;;;1.10;;
10977;SDS011;5542;48.272;10.794;2022-09-09T04:27:42;1.10;;;1.10;;
10977;SDS011;5542;48.272;10.794;2022-09-09T04:30:09;1.60;;;1.45;;
10977;SDS011;5542;48.272;10.794;2022-09-09T04:32:37;1.23;;;1.23;;
10977;SDS011;5542;48.272;10.794;2022-09-09T04:35:03;1.35;;;1.25;;
10977;SDS011;5542;48.272;10.794;2022-09-09T04:37:30;1.20;;;1.10;;
10977;SDS011;5542;48.272;10.794;2022-09-09T04:39:57;1.77;;;1.67;;
10977;SDS011;5542;48.272;10.794;2022-09-09T04:42:24;2.15;;;1.90;;
10977;SDS011;5542;48.272;10.794;2022-09-09T04:44:52;1.65;;;1.55;;
10977;SDS011;5542;48.272;10.794;2022-09-09T04:47:19;2.10;;;1.90;;
10977;SDS011;5542;48.272;10.794;2022-09-09T04:49:46;1.63;;;1.52;;
10977;SDS011;5542;48.272;10.794;2022-09-09T04:52:12;1.90;;;1.80;;
10977;SDS011;5542;48.272;10.794;2022-09-09T04:54:42;1.63;;;1.52;;
10977;SDS011;5542;48.272;10.794;2022-09-09T04:57:10;1.60;;;1.50;;
10977;SDS011;5542;48.272;10.794;2022-09-09T04:59:36;2.25;;;2.10;;
10977;SDS011;5542;48.272;10.794;2022-09-09T05:02:05;2.03;;;1.92;;
10977;SDS011;5542;48.272;10.794;2022-09-09T05:04:32;2.27;;;2.17;;
10977;SDS011;5542;48.272;10.794;2022-09-09T05:06:59;2.03;;;1.60;;
10977;SDS011;5542;48.272;10.794;2022-09-09T05:09:26;1.63;;;1.52;;
10977;SDS011;5542;48.272;10.794;2022-09-09T05:11:52;1.60;;;1.50;;
10977;SDS011;5542;48.272;10.794;2022-09-09T05:14:19;2.00;;;1.90;;
10977;SDS011;5542;48.272;10.794;2022-09-09T05:16:46;1.73;;;1.70;;
10977;SDS011;5542;48.272;10.794;2022-09-09T05:19:16;1.83;;;1.63;;
10977;SDS011;5542;48.272;10.794;2022-09-09T05:21:44;2.00;;;1.90;;
10977;SDS011;5542;48.272;10.794;2022-09-09T05:24:10;2.00;;;1.80;;
10977;SDS011;5542;48.272;10.794;2022-09-09T05:26:37;2.58;;;2.38;;
10977;SDS011;5542;48.272;10.794;2022-09-09T05:29:03;1.90;;;1.80;;
10977;SDS011;5542;48.272;10.794;2022-09-09T05:31:31;1.65;;;1.60;;
10977;SDS011;5542;48.272;10.794;2022-09-09T05:33:58;2.20;;;2.00;;
10977;SDS011;5542;48.272;10.794;2022-09-09T05:36:26;2.33;;;1.90;;
10977;SDS011;5542;48.272;10.794;2022-09-09T05:38:53;1.43;;;1.43;;
10977;SDS011;5542;48.272;10.794;2022-09-09T05:41:19;2.65;;;1.80;;
10977;SDS011;5542;48.272;10.794;2022-09-09T05:43:48;1.37;;;1.37;;
10977;SDS011;5542;48.272;10.794;2022-09-09T05:46:15;1.58;;;1.48;;
10977;SDS011;5542;48.272;10.794;2022-09-09T05:48:44;1.20;;;1.10;;
10977;SDS011;5542;48.272;10.794;2022-09-09T05:51:13;1.33;;;1.30;;
10977;SDS011;5542;48.272;10.794;2022-09-09T05:53:43;1.42;;;1.33;;
10977;SDS011;5542;48.272;10.794;2022-09-09T05:56:12;1.02;;;1.00;;
10977;SDS011;5542;48.272;10.794;2022-09-09T05:58:40;0.90;;;0.90;;
10977;SDS011;5542;48.272;10.794;2022-09-09T06:01:09;1.60;;;1.23;;
10977;SDS011;5542;48.272;10.794;2022-09-09T06:03:37;1.42;;;1.33;;
10977;SDS011;5542;48.272;10.794;2022-09-09T06:06:06;1.70;;;1.15;;
10977;SDS011;5542;48.272;10.794;2022-09-09T06:08:34;1.10;;;1.10;;
10977;SDS011;5542;48.272;10.794;2022-09-09T06:11:05;0.98;;;0.90;;
10977;SDS011;5542;48.272;10.794;2022-09-09T06:13:33;1.10;;;1.10;;
10977;SDS011;5542;48.272;10.794;2022-09-09T06:16:00;0.75;;;0.75;;
10977;SDS011;5542;48.272;10.794;2022-09-09T06:18:27;1.00;;;1.00;;
10977;SDS011;5542;48.272;10.794;2022-09-09T06:20:55;0.90;;;0.90;;
10977;SDS011;5542;48.272;10.794;2022-09-09T06:23:23;0.90;;;0.90;;
10977;SDS011;5542;48.272;10.794;2022-09-09T06:25:50;0.73;;;0.73;;
10977;SDS011;5542;48.272;10.794;2022-09-09T06:28:19;0.80;;;0.80;;
10977;SDS011;5542;48.272;10.794;2022-09-09T06:30:45;0.90;;;0.90;;
10977;SDS011;5542;48.272;10.794;2022-09-09T06:33:12;0.70;;;0.70;;
10977;SDS011;5542;48.272;10.794;2022-09-09T06:35:38;1.00;;;1.00;;
10977;SDS011;5542;48.272;10.794;2022-09-09T06:38:05;2.25;;;1.42;;
10977;SDS011;5542;48.272;10.794;2022-09-09T06:40:33;1.10;;;1.10;;
10977;SDS011;5542;48.272;10.794;2022-09-09T06:43:00;0.85;;;0.85;;
10977;SDS011;5542;48.272;10.794;2022-09-09T06:45:28;0.80;;;0.80;;
10977;SDS011;5542;48.272;10.794;2022-09-09T06:47:55;0.80;;;0.80;;
10977;SDS011;5542;48.272;10.794;2022-09-09T06:50:22;0.80;;;0.80;;
10977;SDS011;5542;48.272;10.794;2022-09-09T06:52:48;1.02;;;1.02;;
10977;SDS011;5542;48.272;10.794;2022-09-09T06:55:15;0.80;;;0.80;;
10977;SDS011;5542;48.272;10.794;2022-09-09T06:57:43;0.80;;;0.80;;
10977;SDS011;5542;48.272;10.794;2022-09-09T07:00:10;1.20;;;0.90;;
10977;SDS011;5542;48.272;10.794;2022-09-09T07:02:40;0.98;;;0.90;;
10977;SDS011;5542;48.272;10.794;2022-09-09T07:05:07;0.93;;;0.93;;
10977;SDS011;5542;48.272;10.794;2022-09-09T07:07:34;0.90;;;0.90;;
10977;SDS011;5542;48.272;10.794;2022-09-09T07:10:01;1.00;;;1.00;;
10977;SDS011;5542;48.272;10.794;2022-09-09T07:12:29;1.10;;;1.10;;
10977;SDS011;5542;48.272;10.794;2022-09-09T07:14:55;0.98;;;0.98;;
10977;SDS011;5542;48.272;10.794;2022-09-09T07:17:22;1.30;;;1.30;;
10977;SDS011;5542;48.272;10.794;2022-09-09T07:19:49;1.30;;;1.10;;
10977;SDS011;5542;48.272;10.794;2022-09-09T07:22:17;1.10;;;1.10;;
10977;SDS011;5542;48.272;10.794;2022-09-09T07:24:45;0.80;;;0.80;;
10977;SDS011;5542;48.272;10.794;2022-09-09T07:27:11;0.80;;;0.80;;
10977;SDS011;5542;48.272;10.794;2022-09-09T07:29:38;1.10;;;1.00;;
10977;SDS011;5542;48.272;10.794;2022-09-09T07:32:04;0.90;;;0.90;;
10977;SDS011;5542;48.272;10.794;2022-09-09T07:34:31;1.20;;;1.20;;
10977;SDS011;5542;48.272;10.794;2022-09-09T07:37:00;1.52;;;1.10;;
10977;SDS011;5542;48.272;10.794;2022-09-09T07:39:26;1.10;;;1.10;;
10977;SDS011;5542;48.272;10.794;2022-09-09T07:41:53;1.10;;;1.10;;
10977;SDS011;5542;48.272;10.794;2022-09-09T07:44:21;1.40;;;1.20;;
10977;SDS011;5542;48.272;10.794;2022-09-09T07:46:49;1.08;;;1.00;;
10977;SDS011;5542;48.272;10.794;2022-09-09T07:49:16;1.02;;;0.93;;
10977;SDS011;5542;48.272;10.794;2022-09-09T07:51:44;0.90;;;0.90;;
10977;SDS011;5542;48.272;10.794;2022-09-09T07:54:14;1.05;;;1.05;;
10977;SDS011;5542;48.272;10.794;2022-09-09T07:56:44;1.48;;;1.27;;
10977;SDS011;5542;48.272;10.794;2022-09-09T07:59:11;1.20;;;1.10;;
10977;SDS011;5542;48.272;10.794;2022-09-09T08:01:39;1.05;;;1.05;;
10977;SDS011;5542;48.272;10.794;2022-09-09T08:04:08;1.92;;;1.45;;
10977;SDS011;5542;48.272;10.794;2022-09-09T08:06:41;1.20;;;1.10;;
10977;SDS011;5542;48.272;10.794;2022-09-09T08:09:09;1.60;;;1.03;;
10977;SDS011;5542;48.272;10.794;2022-09-09T08:11:38;1.35;;;1.25;;
10977;SDS011;5542;48.272;10.794;2022-09-09T08:14:06;1.13;;;1.02;;
10977;SDS011;5542;48.272;10.794;2022-09-09T08:16:34;0.88;;;0.88;;
10977;SDS011;5542;48.272;10.794;2022-09-09T08:19:03;1.20;;;1.10;;
10977;SDS011;5542;48.272;10.794;2022-09-09T08:21:31;0.90;;;0.90;;
10977;SDS011;5542;48.272;10.794;2022-09-09T08:23:59;1.07;;;1.07;;
10977;SDS011;5542;48.272;10.794;2022-09-09T08:26:28;1.00;;;0.90;;
10977;SDS011;5542;48.272;10.794;2022-09-09T08:28:58;0.90;;;0.90;;
10977;SDS011;5542;48.272;10.794;2022-09-09T08:31:26;1.00;;;1.00;;
10977;SDS011;5542;48.272;10.794;2022-09-09T08:33:54;0.98;;;0.98;;
10977;SDS011;5542;48.272;10.794;2022-09-09T08:36:22;2.13;;;1.27;;
10977;SDS011;5542;48.272;10.794;2022-09-09T08:38:51;0.97;;;0.97;;
10977;SDS011;5542;48.272;10.794;2022-09-09T08:41:29;1.20;;;1.02;;
10977;SDS011;5542;48.272;10.794;2022-09-09T08:44:06;0.90;;;0.90;;
10977;SDS011;5542;48.272;10.794;2022-09-09T08:46:40;0.70;;;0.70;;
10977;SDS011;5542;48.272;10.794;2022-09-09T08:49:19;1.05;;;1.00;;
10977;SDS011;5542;48.272;10.794;2022-09-09T08:51:58;1.50;;;1.10;;
10977;SDS011;5542;48.272;10.794;2022-09-09T08:54:25;0.90;;;0.90;;
10977;SDS011;5542;48.272;10.794;2022-09-09T08:56:58;1.10;;;1.10;;
10977;SDS011;5542;48.272;10.794;2022-09-09T08:59:26;0.90;;;0.90;;
10977;SDS011;5542;48.272;10.794;2022-09-09T09:01:58;0.85;;;0.85;;
10977;SDS011;5542;48.272;10.794;2022-09-09T09:04:38;0.60;;;0.60;;
10977;SDS011;5542;48.272;10.794;2022-09-09T09:07:18;0.77;;;0.77;;
10977;SDS011;5542;48.272;10.794;2022-09-09T09:09:54;0.80;;;0.80;;
10977;SDS011;5542;48.272;10.794;2022-09-09T09:12:26;1.20;;;0.68;;
10977;SDS011;5542;48.272;10.794;2022-09-09T09:14:56;1.00;;;0.60;;
10977;SDS011;5542;48.272;10.794;2022-09-09T09:17:25;1.40;;;0.80;;
10977;SDS011;5542;48.272;10.794;2022-09-09T09:19:56;0.90;;;0.75;;
10977;SDS011;5542;48.272;10.794;2022-09-09T09:22:26;0.90;;;0.73;;
10977;SDS011;5542;48.272;10.794;2022-09-09T09:25:00;0.70;;;0.70;;
10977;SDS011;5542;48.272;10.794;2022-09-09T09:27:32;0.77;;;0.77;;
10977;SDS011;5542;48.272;10.794;2022-09-09T09:30:05;0.60;;;0.60;;
10977;SDS011;5542;48.272;10.794;2022-09-09T09:32:40;0.73;;;0.73;;
10977;SDS011;5542;48.272;10.794;2022-09-09T09:35:11;0.55;;;0.55;;
10977;SDS011;5542;48.272;10.794;2022-09-09T09:37:39;1.00;;;0.70;;
10977;SDS011;5542;48.272;10.794;2022-09-09T09:40:09;0.80;;;0.80;;
10977;SDS011;5542;48.272;10.794;2022-09-09T09:42:36;1.20;;;0.77;;
10977;SDS011;5542;48.272;10.794;2022-09-09T09:45:12;0.73;;;0.73;;
10977;SDS011;5542;48.272;10.794;2022-09-09T09:47:43;0.88;;;0.88;;
10977;SDS011;5542;48.272;10.794;2022-09-09T09:50:16;1.42;;;0.80;;
10977;SDS011;5542;48.272;10.794;2022-09-09T09:52:51;1.63;;;0.90;;
10977;SDS011;5542;48.272;10.794;2022-09-09T09:55:20;1.27;;;1.17;;
10977;SDS011;5542;48.272;10.794;2022-09-09T09:57:47;1.73;;;0.90;;
10977;SDS011;5542;48.272;10.794;2022-09-09T10:00:17;0.90;;;0.90;;
10977;SDS011;5542;48.272;10.794;2022-09-09T10:02:45;1.77;;;0.90;;
10977;SDS011;5542;48.272;10.794;2022-09-09T10:05:17;0.80;;;0.80;;
10977;SDS011;5542;48.272;10.794;2022-09-09T10:07:45;1.00;;;1.00;;
10977;SDS011;5542;48.272;10.794;2022-09-09T10:10:14;0.90;;;0.90;;
10977;SDS011;5542;48.272;10.794;2022-09-09T10:12:49;1.00;;;0.90;;
10977;SDS011;5542;48.272;10.794;2022-09-09T10:15:30;1.00;;;1.00;;
10977;SDS011;5542;48.272;10.794;2022-09-09T10:18:08;1.27;;;1.17;;
10977;SDS011;5542;48.272;10.794;2022-09-09T10:20:51;1.10;;;0.90;;
10977;SDS011;5542;48.272;10.794;2022-09-09T10:23:29;0.90;;;0.90;;
10977;SDS011;5542;48.272;10.794;2022-09-09T10:26:15;1.15;;;1.05;;
10977;SDS011;5542;48.272;10.794;2022-09-09T10:29:01;2.25;;;1.02;;
10977;SDS011;5542;48.272;10.794;2022-09-09T10:31:40;1.20;;;1.10;;
10977;SDS011;5542;48.272;10.794;2022-09-09T10:34:19;1.07;;;0.97;;
10977;SDS011;5542;48.272;10.794;2022-09-09T10:37:00;1.33;;;1.10;;
10977;SDS011;5542;48.272;10.794;2022-09-09T10:39:34;1.60;;;1.00;;
10977;SDS011;5542;48.272;10.794;2022-09-09T10:42:03;0.93;;;0.80;;
10977;SDS011;5542;48.272;10.794;2022-09-09T10:44:37;0.80;;;0.80;;
10977;SDS011;5542;48.272;10.794;2022-09-09T10:53:08;1.60;;;0.93;;
10977;SDS011;5542;48.272;10.794;2022-09-09T10:55:45;1.30;;;0.95;;
10977;SDS011;5542;48.272;10.794;2022-09-09T10:58:19;1.33;;;1.20;;
10977;SDS011;5542;48.272;10.794;2022-09-09T11:00:51;1.15;;;1.00;;
10977;SDS011;5542;48.272;10.794;2022-09-09T11:03:23;0.73;;;0.73;;
10977;SDS011;5542;48.272;10.794;2022-09-09T11:05:53;1.00;;;1.00;;
10977;SDS011;5542;48.272;10.794;2022-09-09T11:08:24;0.88;;;0.70;;
10977;SDS011;5542;48.272;10.794;2022-09-09T11:10:53;1.37;;;0.87;;
10977;SDS011;5542;48.272;10.794;2022-09-09T11:13:26;1.10;;;1.02;;
10977;SDS011;5542;48.272;10.794;2022-09-09T11:16:03;1.33;;;1.10;;
10977;SDS011;5542;48.272;10.794;2022-09-09T11:18:39;1.65;;;1.38;;
10977;SDS011;5542;48.272;10.794;2022-09-09T11:21:11;1.60;;;1.10;;
10977;SDS011;5542;48.272;10.794;2022-09-09T11:23:44;1.40;;;0.85;;
10977;SDS011;5542;48.272;10.794;2022-09-09T11:26:18;0.88;;;0.88;;
10977;SDS011;5542;48.272;10.794;2022-09-09T11:28:56;0.93;;;0.83;;
10977;SDS011;5542;48.272;10.794;2022-09-09T11:31:50;1.02;;;0.93;;
10977;SDS011;5542;48.272;10.794;2022-09-09T11:34:33;0.85;;;0.85;;
10977;SDS011;5542;48.272;10.794;2022-09-09T11:40:17;1.95;;;1.00;;
10977;SDS011;5542;48.272;10.794;2022-09-09T11:42:47;1.10;;;1.00;;
10977;SDS011;5542;48.272;10.794;2022-09-09T11:45:19;1.77;;;1.23;;
10977;SDS011;5542;48.272;10.794;2022-09-09T11:47:52;1.30;;;1.20;;
10977;SDS011;5542;48.272;10.794;2022-09-09T11:50:32;0.90;;;0.82;;
10977;SDS011;5542;48.272;10.794;2022-09-09T11:53:20;1.15;;;1.05;;
10977;SDS011;5542;48.272;10.794;2022-09-09T11:55:59;1.10;;;1.00;;
10977;SDS011;5542;48.272;10.794;2022-09-09T11:58:33;1.23;;;1.00;;
10977;SDS011;5542;48.272;10.794;2022-09-09T12:01:12;1.20;;;0.95;;
10977;SDS011;5542;48.272;10.794;2022-09-09T12:03:41;3.83;;;1.50;;
10977;SDS011;5542;48.272;10.794;2022-09-09T12:06:13;2.33;;;1.20;;
10977;SDS011;5542;48.272;10.794;2022-09-09T12:08:43;2.22;;;1.10;;
10977;SDS011;5542;48.272;10.794;2022-09-09T12:11:23;2.72;;;1.10;;
10977;SDS011;5542;48.272;10.794;2022-09-09T12:13:52;1.10;;;1.00;;
10977;SDS011;5542;48.272;10.794;2022-09-09T12:16:27;1.20;;;0.90;;
10977;SDS011;5542;48.272;10.794;2022-09-09T12:19:02;1.90;;;1.67;;
10977;SDS011;5542;48.272;10.794;2022-09-09T12:21:33;1.27;;;1.05;;
10977;SDS011;5542;48.272;10.794;2022-09-09T12:24:07;2.30;;;1.10;;
10977;SDS011;5542;48.272;10.794;2022-09-09T12:26:36;2.70;;;0.93;;
10977;SDS011;5542;48.272;10.794;2022-09-09T12:29:12;1.30;;;1.20;;
10977;SDS011;5542;48.272;10.794;2022-09-09T12:31:49;1.67;;;0.90;;
10977;SDS011;5542;48.272;10.794;2022-09-09T12:34:25;1.20;;;1.10;;
10977;SDS011;5542;48.272;10.794;2022-09-09T12:37:03;2.42;;;1.10;;
10977;SDS011;5542;48.272;10.794;2022-09-09T12:39:36;1.80;;;1.20;;
10977;SDS011;5542;48.272;10.794;2022-09-09T12:42:14;1.42;;;1.25;;
10977;SDS011;5542;48.272;10.794;2022-09-09T12:44:49;1.45;;;1.20;;
10977;SDS011;5542;48.272;10.794;2022-09-09T12:47:17;1.00;;;0.90;;
10977;SDS011;5542;48.272;10.794;2022-09-09T12:49:46;2.42;;;1.10;;
10977;SDS011;5542;48.272;10.794;2022-09-09T12:52:17;0.90;;;0.90;;
10977;SDS011;5542;48.272;10.794;2022-09-09T12:54:49;1.15;;;0.98;;
10977;SDS011;5542;48.272;10.794;2022-09-09T12:57:17;2.03;;;1.30;;
10977;SDS011;5542;48.272;10.794;2022-09-09T12:59:43;1.27;;;1.00;;
10977;SDS011;5542;48.272;10.794;2022-09-09T13:02:15;1.08;;;0.88;;
10977;SDS011;5542;48.272;10.794;2022-09-09T13:04:44;2.05;;;1.00;;
10977;SDS011;5542;48.272;10.794;2022-09-09T13:07:12;2.67;;;1.00;;
10977;SDS011;5542;48.272;10.794;2022-09-09T13:09:42;1.58;;;1.20;;
10977;SDS011;5542;48.272;10.794;2022-09-09T13:12:11;2.28;;;1.00;;
10977;SDS011;5542;48.272;10.794;2022-09-09T13:14:42;2.05;;;1.30;;
10977;SDS011;5542;48.272;10.794;2022-09-09T13:17:15;1.85;;;1.20;;
10977;SDS011;5542;48.272;10.794;2022-09-09T13:19:45;1.05;;;0.88;;
10977;SDS011;5542;48.272;10.794;2022-09-09T13:22:12;1.30;;;1.20;;
10977;SDS011;5542;48.272;10.794;2022-09-09T13:24:42;1.05;;;0.85;;
10977;SDS011;5542;48.272;10.794;2022-09-09T13:27:21;1.65;;;1.00;;
10977;SDS011;5542;48.272;10.794;2022-09-09T13:29:53;1.80;;;0.70;;
10977;SDS011;5542;48.272;10.794;2022-09-09T13:32:21;1.45;;;1.15;;
10977;SDS011;5542;48.272;10.794;2022-09-09T13:34:50;0.70;;;0.70;;
10977;SDS011;5542;48.272;10.794;2022-09-09T13:37:19;1.33;;;0.90;;
10977;SDS011;5542;48.272;10.794;2022-09-09T13:39:52;1.23;;;1.13;;
10977;SDS011;5542;48.272;10.794;2022-09-09T13:42:22;1.80;;;1.30;;
10977;SDS011;5542;48.272;10.794;2022-09-09T13:44:51;1.00;;;0.88;;
10977;SDS011;5542;48.272;10.794;2022-09-09T13:47:19;1.60;;;0.90;;
10977;SDS011;5542;48.272;10.794;2022-09-09T13:49:48;1.10;;;1.00;;
10977;SDS011;5542;48.272;10.794;2022-09-09T13:52:15;0.90;;;0.70;;
10977;SDS011;5542;48.272;10.794;2022-09-09T13:54:46;1.90;;;1.23;;
10977;SDS011;5542;48.272;10.794;2022-09-09T13:57:15;1.60;;;1.00;;
10977;SDS011;5542;48.272;10.794;2022-09-09T13:59:43;1.02;;;0.80;;
10977;SDS011;5542;48.272;10.794;2022-09-09T14:02:10;1.60;;;1.10;;
10977;SDS011;5542;48.272;10.794;2022-09-09T14:04:36;2.20;;;1.10;;
10977;SDS011;5542;48.272;10.794;2022-09-09T14:07:07;2.20;;;1.75;;
10977;SDS011;5542;48.272;10.794;2022-09-09T14:09:37;1.23;;;1.02;;
10977;SDS011;5542;48.272;10.794;2022-09-09T14:12:04;1.67;;;1.10;;
10977;SDS011;5542;48.272;10.794;2022-09-09T14:14:32;0.68;;;0.68;;
10977;SDS011;5542;48.272;10.794;2022-09-09T14:16:58;1.10;;;0.75;;
10977;SDS011;5542;48.272;10.794;2022-09-09T14:19:25;1.20;;;1.10;;
10977;SDS011;5542;48.272;10.794;2022-09-09T14:21:52;0.73;;;0.73;;
10977;SDS011;5542;48.272;10.794;2022-09-09T14:24:19;0.95;;;0.90;;
10977;SDS011;5542;48.272;10.794;2022-09-09T14:26:46;0.60;;;0.60;;
10977;SDS011;5542;48.272;10.794;2022-09-09T14:29:13;0.75;;;0.75;;
10977;SDS011;5542;48.272;10.794;2022-09-09T14:31:40;0.82;;;0.82;;
10977;SDS011;5542;48.272;10.794;2022-09-09T14:34:07;1.08;;;1.02;;
10977;SDS011;5542;48.272;10.794;2022-09-09T14:36:34;1.27;;;1.00;;
10977;SDS011;5542;48.272;10.794;2022-09-09T14:39:01;0.80;;;0.80;;
10977;SDS011;5542;48.272;10.794;2022-09-09T14:41:28;1.38;;;1.00;;
10977;SDS011;5542;48.272;10.794;2022-09-09T14:43:54;0.93;;;0.85;;
10977;SDS011;5542;48.272;10.794;2022-09-09T14:46:21;1.20;;;1.10;;
10977;SDS011;5542;48.272;10.794;2022-09-09T14:48:49;1.05;;;1.02;;
10977;SDS011;5542;48.272;10.794;2022-09-09T14:51:16;1.58;;;1.38;;
10977;SDS011;5542;48.272;10.794;2022-09-09T14:53:45;2.10;;;1.80;;
10977;SDS011;5542;48.272;10.794;2022-09-09T14:56:13;1.52;;;1.40;;
10977;SDS011;5542;48.272;10.794;2022-09-09T14:58:41;1.00;;;1.00;;
10977;SDS011;5542;48.272;10.794;2022-09-09T15:01:08;0.55;;;0.55;;
10977;SDS011;5542;48.272;10.794;2022-09-09T15:03:36;1.50;;;1.20;;
10977;SDS011;5542;48.272;10.794;2022-09-09T15:06:08;1.40;;;1.00;;
10977;SDS011;5542;48.272;10.794;2022-09-09T15:08:36;1.70;;;0.80;;
10977;SDS011;5542;48.272;10.794;2022-09-09T15:11:03;1.40;;;1.30;;
10977;SDS011;5542;48.272;10.794;2022-09-09T15:13:32;1.70;;;1.10;;
10977;SDS011;5542;48.272;10.794;2022-09-09T15:16:03;1.33;;;1.00;;
10977;SDS011;5542;48.272;10.794;2022-09-09T15:18:30;0.85;;;0.85;;
10977;SDS011;5542;48.272;10.794;2022-09-09T15:20:58;1.30;;;1.00;;